sensor_id;sensor_type;location;lat;lon;timestamp;temperature;humidity
80192;SHT31;69513;51.990;5.704;2024-02-16T06:41:10;15.5;63.4
80192;SHT31;69513;51.990;5.704;2024-02-16T06:43:44;15.5;63.0
80192;SHT31;69513;51.990;5.704;2024-02-16T06:46:14;15.4;63.4
80192;SHT31;69513;51.990;5.704;2024-02-16T06:48:43;15.2;63.7
80192;SHT31;69513;51.990;5.704;2024-02-16T06:51:13;15.1;64.0
80192;SHT31;69513;51.990;5.704;2024-02-16T06:53:44;15.0;64.6
80192;SHT31;69513;51.990;5.704;2024-02-16T06:56:13;14.8;65.1
80192;SHT31;69513;51.990;5.704;2024-02-16T06:58:42;14.7;65.4
80192;SHT31;69513;51.990;5.704;2024-02-16T07:01:15;14.6;66.0
80192;SHT31;69513;51.990;5.704;2024-02-16T07:03:46;14.5;66.2
80192;SHT31;69513;51.990;5.704;2024-02-16T07:06:16;14.4;66.5
80192;SHT31;69513;51.990;5.704;2024-02-16T07:08:46;14.3;67.1
80192;SHT31;69513;51.990;5.704;2024-02-16T07:11:15;14.3;67.6
80192;SHT31;69513;51.990;5.704;2024-02-16T07:13:47;14.2;67.8
80192;SHT31;69513;51.990;5.704;2024-02-16T07:16:18;14.1;68.2
80192;SHT31;69513;51.990;5.704;2024-02-16T07:18:50;14.0;68.6
80192;SHT31;69513;51.990;5.704;2024-02-16T07:21:19;14.0;69.0
80192;SHT31;69513;51.990;5.704;2024-02-16T07:23:58;13.9;69.1
80192;SHT31;69513;51.990;5.704;2024-02-16T07:26:28;13.9;69.7
80192;SHT31;69513;51.990;5.704;2024-02-16T07:28:58;13.9;70.2
80192;SHT31;69513;51.990;5.704;2024-02-16T07:31:31;13.8;70.4
80192;SHT31;69513;51.990;5.704;2024-02-16T07:34:03;13.8;70.6
80192;SHT31;69513;51.990;5.704;2024-02-16T07:36:34;13.8;70.7
80192;SHT31;69513;51.990;5.704;2024-02-16T07:39:04;13.8;70.9
80192;SHT31;69513;51.990;5.704;2024-02-16T07:41:35;13.7;70.7
80192;SHT31;69513;51.990;5.704;2024-02-16T07:44:06;13.7;70.8
80192;SHT31;69513;51.990;5.704;2024-02-16T07:46:41;13.7;70.9
80192;SHT31;69513;51.990;5.704;2024-02-16T07:49:14;13.7;71.4
80192;SHT31;69513;51.990;5.704;2024-02-16T07:51:44;13.7;71.8
80192;SHT31;69513;51.990;5.704;2024-02-16T07:54:14;13.6;71.9
80192;SHT31;69513;51.990;5.704;2024-02-16T07:56:43;13.6;72.0
80192;SHT31;69513;51.990;5.704;2024-02-16T07:59:14;13.6;72.1
80192;SHT31;69513;51.990;5.704;2024-02-16T08:01:44;13.6;72.2
80192;SHT31;69513;51.990;5.704;2024-02-16T08:04:15;13.7;72.4
80192;SHT31;69513;51.990;5.704;2024-02-16T08:06:44;13.7;72.4
80192;SHT31;69513;51.990;5.704;2024-02-16T08:09:14;13.7;72.5
80192;SHT31;69513;51.990;5.704;2024-02-16T08:11:43;13.7;73.0
80192;SHT31;69513;51.990;5.704;2024-02-16T08:14:13;13.7;72.9
80192;SHT31;69513;51.990;5.704;2024-02-16T08:16:42;13.7;72.7
80192;SHT31;69513;51.990;5.704;2024-02-16T08:19:13;13.7;73.0
80192;SHT31;69513;51.990;5.704;2024-02-16T08:21:45;13.7;72.5
80192;SHT31;69513;51.990;5.704;2024-02-16T08:24:14;13.7;73.2
80192;SHT31;69513;51.990;5.704;2024-02-16T08:26:45;13.7;73.3
80192;SHT31;69513;51.990;5.704;2024-02-16T08:29:14;13.7;73.3
80192;SHT31;69513;51.990;5.704;2024-02-16T08:31:44;13.7;72.9
80192;SHT31;69513;51.990;5.704;2024-02-16T08:34:14;13.7;73.8
80192;SHT31;69513;51.990;5.704;2024-02-16T08:36:47;13.7;73.8
80192;SHT31;69513;51.990;5.704;2024-02-16T08:39:17;13.8;73.7
80192;SHT31;69513;51.990;5.704;2024-02-16T08:41:47;13.8;73.6
80192;SHT31;69513;51.990;5.704;2024-02-16T08:44:17;13.8;73.7
80192;SHT31;69513;51.990;5.704;2024-02-16T08:46:46;13.8;73.3
80192;SHT31;69513;51.990;5.704;2024-02-16T08:49:17;13.9;73.7
80192;SHT31;69513;51.990;5.704;2024-02-16T08:51:50;13.9;73.6
80192;SHT31;69513;51.990;5.704;2024-02-16T08:54:19;13.9;73.7
80192;SHT31;69513;51.990;5.704;2024-02-16T08:56:49;13.9;73.7
80192;SHT31;69513;51.990;5.704;2024-02-16T08:59:19;14.0;73.4
80192;SHT31;69513;51.990;5.704;2024-02-16T09:01:49;14.0;73.5
80192;SHT31;69513;51.990;5.704;2024-02-16T09:04:18;14.0;73.8
80192;SHT31;69513;51.990;5.704;2024-02-16T09:06:48;14.0;73.7
80192;SHT31;69513;51.990;5.704;2024-02-16T09:09:18;14.1;73.7
80192;SHT31;69513;51.990;5.704;2024-02-16T09:11:48;14.1;74.0
80192;SHT31;69513;51.990;5.704;2024-02-16T09:14:17;14.1;73.8
80192;SHT31;69513;51.990;5.704;2024-02-16T09:16:48;14.2;73.2
80192;SHT31;69513;51.990;5.704;2024-02-16T09:19:21;14.2;73.6
80192;SHT31;69513;51.990;5.704;2024-02-16T09:21:50;14.2;73.2
80192;SHT31;69513;51.990;5.704;2024-02-16T09:24:21;14.3;73.9
80192;SHT31;69513;51.990;5.704;2024-02-16T09:26:56;14.3;74.0
80192;SHT31;69513;51.990;5.704;2024-02-16T09:29:30;14.4;73.9
80192;SHT31;69513;51.990;5.704;2024-02-16T09:32:00;14.4;73.8
80192;SHT31;69513;51.990;5.704;2024-02-16T09:34:30;14.4;73.5
80192;SHT31;69513;51.990;5.704;2024-02-16T09:36:59;14.5;73.6
80192;SHT31;69513;51.990;5.704;2024-02-16T09:39:31;14.5;74.3
80192;SHT31;69513;51.990;5.704;2024-02-16T09:42:05;14.5;73.7
80192;SHT31;69513;51.990;5.704;2024-02-16T09:44:36;14.5;73.8
80192;SHT31;69513;51.990;5.704;2024-02-16T09:47:08;14.6;74.3
80192;SHT31;69513;51.990;5.704;2024-02-16T09:49:41;14.6;74.0
80192;SHT31;69513;51.990;5.704;2024-02-16T09:52:12;14.6;74.0
80192;SHT31;69513;51.990;5.704;2024-02-16T09:54:44;14.6;74.1
80192;SHT31;69513;51.990;5.704;2024-02-16T09:57:19;14.6;74.4
80192;SHT31;69513;51.990;5.704;2024-02-16T09:59:49;14.6;73.9
80192;SHT31;69513;51.990;5.704;2024-02-16T10:02:20;14.6;73.4
80192;SHT31;69513;51.990;5.704;2024-02-16T10:04:51;14.6;73.3
80192;SHT31;69513;51.990;5.704;2024-02-16T10:07:32;14.6;73.9
80192;SHT31;69513;51.990;5.704;2024-02-16T10:10:03;14.6;73.6
80192;SHT31;69513;51.990;5.704;2024-02-16T10:12:33;14.6;73.9
80192;SHT31;69513;51.990;5.704;2024-02-16T10:15:04;14.6;74.0
80192;SHT31;69513;51.990;5.704;2024-02-16T10:17:34;14.6;74.1
80192;SHT31;69513;51.990;5.704;2024-02-16T10:20:10;14.6;74.1
80192;SHT31;69513;51.990;5.704;2024-02-16T10:22:44;14.6;73.9
80192;SHT31;69513;51.990;5.704;2024-02-16T10:25:15;14.6;74.6
80192;SHT31;69513;51.990;5.704;2024-02-16T10:27:48;14.6;74.2
80192;SHT31;69513;51.990;5.704;2024-02-16T10:30:24;14.6;74.3
80192;SHT31;69513;51.990;5.704;2024-02-16T10:32:57;14.6;74.5
80192;SHT31;69513;51.990;5.704;2024-02-16T10:35:31;14.6;74.2
80192;SHT31;69513;51.990;5.704;2024-02-16T10:38:06;14.6;74.7
80192;SHT31;69513;51.990;5.704;2024-02-16T10:40:39;14.6;75.1
80192;SHT31;69513;51.990;5.704;2024-02-16T10:43:16;14.6;74.8
80192;SHT31;69513;51.990;5.704;2024-02-16T10:45:47;14.6;74.5
80192;SHT31;69513;51.990;5.704;2024-02-16T10:48:21;14.6;74.7
80192;SHT31;69513;51.990;5.704;2024-02-16T10:50:51;14.6;74.3
80192;SHT31;69513;51.990;5.704;2024-02-16T10:53:27;14.6;74.5
80192;SHT31;69513;51.990;5.704;2024-02-16T10:56:02;14.6;74.9
80192;SHT31;69513;51.990;5.704;2024-02-16T10:58:32;14.6;74.7
80192;SHT31;69513;51.990;5.704;2024-02-16T11:01:10;14.6;75.2
80192;SHT31;69513;51.990;5.704;2024-02-16T11:03:40;14.6;75.3
80192;SHT31;69513;51.990;5.704;2024-02-16T11:06:18;14.6;75.7
80192;SHT31;69513;51.990;5.704;2024-02-16T11:08:49;14.6;76.0
80192;SHT31;69513;51.990;5.704;2024-02-16T11:11:24;14.6;75.9
80192;SHT31;69513;51.990;5.704;2024-02-16T11:13:59;14.6;75.8
80192;SHT31;69513;51.990;5.704;2024-02-16T11:16:30;14.6;76.0
80192;SHT31;69513;51.990;5.704;2024-02-16T11:19:01;14.6;76.3
80192;SHT31;69513;51.990;5.704;2024-02-16T11:21:34;14.6;76.7
80192;SHT31;69513;51.990;5.704;2024-02-16T11:24:07;14.6;76.7
80192;SHT31;69513;51.990;5.704;2024-02-16T11:26:45;14.5;76.9
80192;SHT31;69513;51.990;5.704;2024-02-16T11:29:14;14.5;76.9
80192;SHT31;69513;51.990;5.704;2024-02-16T11:31:46;14.5;76.9
80192;SHT31;69513;51.990;5.704;2024-02-16T11:34:25;14.4;77.4
80192;SHT31;69513;51.990;5.704;2024-02-16T11:36:57;14.4;77.8
80192;SHT31;69513;51.990;5.704;2024-02-16T11:39:29;14.4;78.1
80192;SHT31;69513;51.990;5.704;2024-02-16T11:42:05;14.4;78.4
80192;SHT31;69513;51.990;5.704;2024-02-16T11:44:39;14.4;78.5
80192;SHT31;69513;51.990;5.704;2024-02-16T11:47:18;14.3;78.3
80192;SHT31;69513;51.990;5.704;2024-02-16T11:49:47;14.3;78.4
80192;SHT31;69513;51.990;5.704;2024-02-16T11:52:18;14.3;78.6
80192;SHT31;69513;51.990;5.704;2024-02-16T11:54:49;14.3;78.7
80192;SHT31;69513;51.990;5.704;2024-02-16T11:57:20;14.3;78.8
80192;SHT31;69513;51.990;5.704;2024-02-16T11:59:53;14.3;79.0
80192;SHT31;69513;51.990;5.704;2024-02-16T12:02:25;14.3;78.9
80192;SHT31;69513;51.990;5.704;2024-02-16T12:05:13;14.3;78.9
80192;SHT31;69513;51.990;5.704;2024-02-16T12:07:46;14.3;79.0
80192;SHT31;69513;51.990;5.704;2024-02-16T12:10:15;14.3;79.1
80192;SHT31;69513;51.990;5.704;2024-02-16T12:12:48;14.3;79.2
80192;SHT31;69513;51.990;5.704;2024-02-16T12:15:17;14.3;79.2
80192;SHT31;69513;51.990;5.704;2024-02-16T12:18:02;14.3;79.1
80192;SHT31;69513;51.990;5.704;2024-02-16T12:20:32;14.3;79.2
80192;SHT31;69513;51.990;5.704;2024-02-16T12:23:12;14.3;79.3
80192;SHT31;69513;51.990;5.704;2024-02-16T12:25:46;14.3;79.2
80192;SHT31;69513;51.990;5.704;2024-02-16T12:28:15;14.3;79.0
80192;SHT31;69513;51.990;5.704;2024-02-16T12:30:44;14.3;79.0
80192;SHT31;69513;51.990;5.704;2024-02-16T12:33:15;14.3;79.1
80192;SHT31;69513;51.990;5.704;2024-02-16T12:35:46;14.3;78.8
80192;SHT31;69513;51.990;5.704;2024-02-16T12:38:17;14.3;78.7
80192;SHT31;69513;51.990;5.704;2024-02-16T12:40:49;14.3;78.8
80192;SHT31;69513;51.990;5.704;2024-02-16T12:43:19;14.3;78.7
80192;SHT31;69513;51.990;5.704;2024-02-16T12:45:49;14.3;78.8
80192;SHT31;69513;51.990;5.704;2024-02-16T12:48:18;14.2;79.0
80192;SHT31;69513;51.990;5.704;2024-02-16T12:50:48;14.2;79.2
80192;SHT31;69513;51.990;5.704;2024-02-16T12:53:18;14.2;79.4
80192;SHT31;69513;51.990;5.704;2024-02-16T12:55:52;14.2;79.4
80192;SHT31;69513;51.990;5.704;2024-02-16T12:58:22;14.2;79.2
80192;SHT31;69513;51.990;5.704;2024-02-16T13:00:52;14.2;79.4
80192;SHT31;69513;51.990;5.704;2024-02-16T13:03:22;14.2;79.0
80192;SHT31;69513;51.990;5.704;2024-02-16T13:05:51;14.1;79.3
80192;SHT31;69513;51.990;5.704;2024-02-16T13:08:20;14.1;79.3
80192;SHT31;69513;51.990;5.704;2024-02-16T13:10:50;14.1;79.2
80192;SHT31;69513;51.990;5.704;2024-02-16T13:13:20;14.1;79.4
80192;SHT31;69513;51.990;5.704;2024-02-16T13:15:50;14.1;79.7
80192;SHT31;69513;51.990;5.704;2024-02-16T13:18:21;14.0;79.6
80192;SHT31;69513;51.990;5.704;2024-02-16T13:20:50;14.0;79.6
80192;SHT31;69513;51.990;5.704;2024-02-16T13:23:20;14.0;80.2
80192;SHT31;69513;51.990;5.704;2024-02-16T13:25:49;14.0;80.5
80192;SHT31;69513;51.990;5.704;2024-02-16T13:28:21;14.0;80.8
80192;SHT31;69513;51.990;5.704;2024-02-16T13:30:51;14.0;80.7
80192;SHT31;69513;51.990;5.704;2024-02-16T13:33:21;14.0;80.5
80192;SHT31;69513;51.990;5.704;2024-02-16T13:35:50;14.0;80.6
80192;SHT31;69513;51.990;5.704;2024-02-16T13:38:22;14.0;81.0
80192;SHT31;69513;51.990;5.704;2024-02-16T13:40:52;14.0;80.4
80192;SHT31;69513;51.990;5.704;2024-02-16T13:43:21;14.0;80.2
80192;SHT31;69513;51.990;5.704;2024-02-16T13:45:52;14.0;80.4
80192;SHT31;69513;51.990;5.704;2024-02-16T13:48:25;14.0;80.4
80192;SHT31;69513;51.990;5.704;2024-02-16T13:50:59;14.0;80.4
80192;SHT31;69513;51.990;5.704;2024-02-16T13:53:30;14.1;80.6
80192;SHT31;69513;51.990;5.704;2024-02-16T13:56:00;14.1;80.3
80192;SHT31;69513;51.990;5.704;2024-02-16T13:58:33;14.1;80.5
80192;SHT31;69513;51.990;5.704;2024-02-16T14:01:07;14.1;80.0
80192;SHT31;69513;51.990;5.704;2024-02-16T14:03:38;14.1;79.9
80192;SHT31;69513;51.990;5.704;2024-02-16T14:06:08;14.2;79.5
80192;SHT31;69513;51.990;5.704;2024-02-16T14:08:38;14.2;79.7
80192;SHT31;69513;51.990;5.704;2024-02-16T14:11:09;14.2;79.8
80192;SHT31;69513;51.990;5.704;2024-02-16T14:13:38;14.2;78.6
80192;SHT31;69513;51.990;5.704;2024-02-16T14:16:11;14.2;78.3
80192;SHT31;69513;51.990;5.704;2024-02-16T14:18:40;14.2;79.2
80192;SHT31;69513;51.990;5.704;2024-02-16T14:21:10;14.2;79.1
80192;SHT31;69513;51.990;5.704;2024-02-16T14:23:39;14.2;79.3
80192;SHT31;69513;51.990;5.704;2024-02-16T14:26:13;14.2;78.7
80192;SHT31;69513;51.990;5.704;2024-02-16T14:28:42;14.2;78.7
80192;SHT31;69513;51.990;5.704;2024-02-16T14:31:12;14.2;78.6
80192;SHT31;69513;51.990;5.704;2024-02-16T14:33:46;14.2;78.5
80192;SHT31;69513;51.990;5.704;2024-02-16T14:36:16;14.2;78.7
80192;SHT31;69513;51.990;5.704;2024-02-16T14:38:45;14.2;79.1
80192;SHT31;69513;51.990;5.704;2024-02-16T14:41:15;14.3;78.5
80192;SHT31;69513;51.990;5.704;2024-02-16T14:43:45;14.3;77.3
80192;SHT31;69513;51.990;5.704;2024-02-16T14:46:14;14.3;77.0
80192;SHT31;69513;51.990;5.704;2024-02-16T14:48:45;14.3;77.9
80192;SHT31;69513;51.990;5.704;2024-02-16T14:51:15;14.3;77.5
80192;SHT31;69513;51.990;5.704;2024-02-16T14:53:45;14.3;77.2
80192;SHT31;69513;51.990;5.704;2024-02-16T14:56:15;14.4;77.2
80192;SHT31;69513;51.990;5.704;2024-02-16T14:58:49;14.4;77.0
80192;SHT31;69513;51.990;5.704;2024-02-16T15:01:20;14.4;77.3
80192;SHT31;69513;51.990;5.704;2024-02-16T15:03:49;14.4;77.6
80192;SHT31;69513;51.990;5.704;2024-02-16T15:06:20;14.4;77.7
80192;SHT31;69513;51.990;5.704;2024-02-16T15:08:50;14.4;76.7
80192;SHT31;69513;51.990;5.704;2024-02-16T15:11:20;14.4;76.6
80192;SHT31;69513;51.990;5.704;2024-02-16T15:13:50;14.4;76.7
80192;SHT31;69513;51.990;5.704;2024-02-16T15:16:20;14.4;76.6
80192;SHT31;69513;51.990;5.704;2024-02-16T15:18:49;14.4;76.3
80192;SHT31;69513;51.990;5.704;2024-02-16T15:21:19;14.4;76.4
80192;SHT31;69513;51.990;5.704;2024-02-16T15:23:49;14.4;76.2
80192;SHT31;69513;51.990;5.704;2024-02-16T15:26:23;14.4;76.3
80192;SHT31;69513;51.990;5.704;2024-02-16T15:28:53;14.4;76.1
80192;SHT31;69513;51.990;5.704;2024-02-16T15:31:23;14.4;76.2
80192;SHT31;69513;51.990;5.704;2024-02-16T15:33:53;14.4;76.5
80192;SHT31;69513;51.990;5.704;2024-02-16T15:36:23;14.4;76.9
80192;SHT31;69513;51.990;5.704;2024-02-16T15:38:53;14.4;75.8
80192;SHT31;69513;51.990;5.704;2024-02-16T15:41:24;14.4;76.1
80192;SHT31;69513;51.990;5.704;2024-02-16T15:43:55;14.4;75.8
80192;SHT31;69513;51.990;5.704;2024-02-16T15:46:25;14.4;75.6
80192;SHT31;69513;51.990;5.704;2024-02-16T15:48:54;14.4;75.0
80192;SHT31;69513;51.990;5.704;2024-02-16T15:51:24;14.4;74.5
80192;SHT31;69513;51.990;5.704;2024-02-16T15:53:55;14.4;75.0
80192;SHT31;69513;51.990;5.704;2024-02-16T15:56:24;14.3;73.9
80192;SHT31;69513;51.990;5.704;2024-02-16T15:58:56;14.3;74.8
80192;SHT31;69513;51.990;5.704;2024-02-16T16:01:28;14.3;75.0
80192;SHT31;69513;51.990;5.704;2024-02-16T16:04:00;14.3;75.5
80192;SHT31;69513;51.990;5.704;2024-02-16T16:06:30;14.3;74.8
80192;SHT31;69513;51.990;5.704;2024-02-16T16:09:00;14.3;75.2
80192;SHT31;69513;51.990;5.704;2024-02-16T16:11:34;14.3;75.7
80192;SHT31;69513;51.990;5.704;2024-02-16T16:14:05;14.3;75.7
80192;SHT31;69513;51.990;5.704;2024-02-16T16:16:34;14.3;75.4
80192;SHT31;69513;51.990;5.704;2024-02-16T16:19:04;14.3;75.7
80192;SHT31;69513;51.990;5.704;2024-02-16T16:21:36;14.3;75.1
80192;SHT31;69513;51.990;5.704;2024-02-16T16:24:07;14.3;75.3
80192;SHT31;69513;51.990;5.704;2024-02-16T16:26:41;14.3;75.6
80192;SHT31;69513;51.990;5.704;2024-02-16T16:29:14;14.3;75.9
80192;SHT31;69513;51.990;5.704;2024-02-16T16:31:45;14.3;75.9
80192;SHT31;69513;51.990;5.704;2024-02-16T16:34:14;14.3;75.8
80192;SHT31;69513;51.990;5.704;2024-02-16T16:36:44;14.3;75.8
80192;SHT31;69513;51.990;5.704;2024-02-16T16:39:14;14.3;75.9
80192;SHT31;69513;51.990;5.704;2024-02-16T16:41:45;14.3;75.7
80192;SHT31;69513;51.990;5.704;2024-02-16T16:44:14;14.3;75.5
80192;SHT31;69513;51.990;5.704;2024-02-16T16:46:46;14.3;75.6
80192;SHT31;69513;51.990;5.704;2024-02-16T16:49:15;14.3;75.5
80192;SHT31;69513;51.990;5.704;2024-02-16T16:51:47;14.3;75.8
80192;SHT31;69513;51.990;5.704;2024-02-16T16:54:19;14.3;75.8
80192;SHT31;69513;51.990;5.704;2024-02-16T16:56:49;14.3;75.8
80192;SHT31;69513;51.990;5.704;2024-02-16T16:59:20;14.3;75.4
80192;SHT31;69513;51.990;5.704;2024-02-16T17:01:50;14.3;75.5
80192;SHT31;69513;51.990;5.704;2024-02-16T17:04:20;14.3;75.8
80192;SHT31;69513;51.990;5.704;2024-02-16T17:06:51;14.3;75.7
80192;SHT31;69513;51.990;5.704;2024-02-16T17:09:21;14.3;75.8
80192;SHT31;69513;51.990;5.704;2024-02-16T17:11:50;14.3;75.7
80192;SHT31;69513;51.990;5.704;2024-02-16T17:14:23;14.3;75.6
80192;SHT31;69513;51.990;5.704;2024-02-16T17:16:56;14.3;75.6
80192;SHT31;69513;51.990;5.704;2024-02-16T17:19:27;14.3;75.8
80192;SHT31;69513;51.990;5.704;2024-02-16T17:21:57;14.3;75.6
80192;SHT31;69513;51.990;5.704;2024-02-16T17:24:27;14.3;75.4
80192;SHT31;69513;51.990;5.704;2024-02-16T17:26:59;14.3;75.2
80192;SHT31;69513;51.990;5.704;2024-02-16T17:29:31;14.3;75.0
80192;SHT31;69513;51.990;5.704;2024-02-16T17:32:02;14.3;75.5
80192;SHT31;69513;51.990;5.704;2024-02-16T17:34:34;14.3;75.5
80192;SHT31;69513;51.990;5.704;2024-02-16T17:37:05;14.2;75.6
80192;SHT31;69513;51.990;5.704;2024-02-16T17:39:34;14.2;74.7
80192;SHT31;69513;51.990;5.704;2024-02-16T17:42:06;14.2;75.0
80192;SHT31;69513;51.990;5.704;2024-02-16T17:44:35;14.2;74.6
80192;SHT31;69513;51.990;5.704;2024-02-16T17:47:05;14.2;73.7
80192;SHT31;69513;51.990;5.704;2024-02-16T17:49:34;14.2;74.1
80192;SHT31;69513;51.990;5.704;2024-02-16T17:52:05;14.1;74.7
80192;SHT31;69513;51.990;5.704;2024-02-16T17:54:37;14.1;74.6
80192;SHT31;69513;51.990;5.704;2024-02-16T17:57:07;14.1;74.2
80192;SHT31;69513;51.990;5.704;2024-02-16T17:59:36;14.1;74.7
80192;SHT31;69513;51.990;5.704;2024-02-16T18:02:06;14.1;74.4
80192;SHT31;69513;51.990;5.704;2024-02-16T18:04:35;14.1;74.8
80192;SHT31;69513;51.990;5.704;2024-02-16T18:07:07;14.0;74.3
80192;SHT31;69513;51.990;5.704;2024-02-16T18:09:41;14.0;74.4
80192;SHT31;69513;51.990;5.704;2024-02-16T18:12:13;14.0;74.8
80192;SHT31;69513;51.990;5.704;2024-02-16T18:14:46;14.0;75.1
80192;SHT31;69513;51.990;5.704;2024-02-16T18:17:15;14.0;74.9
80192;SHT31;69513;51.990;5.704;2024-02-16T18:19:47;14.0;75.2
80192;SHT31;69513;51.990;5.704;2024-02-16T18:22:16;14.0;75.4
80192;SHT31;69513;51.990;5.704;2024-02-16T18:24:46;14.0;75.7
80192;SHT31;69513;51.990;5.704;2024-02-16T18:27:15;14.0;75.2
80192;SHT31;69513;51.990;5.704;2024-02-16T18:29:48;14.0;75.4
80192;SHT31;69513;51.990;5.704;2024-02-16T18:32:18;14.0;75.5
80192;SHT31;69513;51.990;5.704;2024-02-16T18:34:47;14.0;75.6
80192;SHT31;69513;51.990;5.704;2024-02-16T18:37:17;14.0;75.4
80192;SHT31;69513;51.990;5.704;2024-02-16T18:39:47;14.0;75.1
80192;SHT31;69513;51.990;5.704;2024-02-16T18:42:17;14.0;74.9
80192;SHT31;69513;51.990;5.704;2024-02-16T18:44:46;14.0;75.3
80192;SHT31;69513;51.990;5.704;2024-02-16T18:47:19;14.0;75.5
80192;SHT31;69513;51.990;5.704;2024-02-16T18:49:51;14.0;75.3
80192;SHT31;69513;51.990;5.704;2024-02-16T18:52:24;14.0;75.6
80192;SHT31;69513;51.990;5.704;2024-02-16T18:54:53;14.0;75.5
80192;SHT31;69513;51.990;5.704;2024-02-16T18:57:25;14.0;75.3
80192;SHT31;69513;51.990;5.704;2024-02-16T18:59:55;14.0;75.4
80192;SHT31;69513;51.990;5.704;2024-02-16T19:02:24;14.0;75.2
80192;SHT31;69513;51.990;5.704;2024-02-16T19:04:53;13.9;74.8
80192;SHT31;69513;51.990;5.704;2024-02-16T19:07:25;13.9;75.3
80192;SHT31;69513;51.990;5.704;2024-02-16T19:09:54;13.9;75.3
80192;SHT31;69513;51.990;5.704;2024-02-16T19:12:25;13.9;75.4
80192;SHT31;69513;51.990;5.704;2024-02-16T19:14:55;13.9;75.1
80192;SHT31;69513;51.990;5.704;2024-02-16T19:17:28;13.9;75.2
80192;SHT31;69513;51.990;5.704;2024-02-16T19:19:57;13.9;75.1
80192;SHT31;69513;51.990;5.704;2024-02-16T19:22:27;13.9;74.9
80192;SHT31;69513;51.990;5.704;2024-02-16T19:24:57;13.9;74.8
80192;SHT31;69513;51.990;5.704;2024-02-16T19:27:27;13.8;75.2
80192;SHT31;69513;51.990;5.704;2024-02-16T19:29:58;13.8;74.8
80192;SHT31;69513;51.990;5.704;2024-02-16T19:32:28;13.8;74.9
80192;SHT31;69513;51.990;5.704;2024-02-16T19:34:58;13.8;75.4
80192;SHT31;69513;51.990;5.704;2024-02-16T19:37:29;13.8;75.5
80192;SHT31;69513;51.990;5.704;2024-02-16T19:39:59;13.7;74.5
80192;SHT31;69513;51.990;5.704;2024-02-16T19:42:28;13.7;74.9
80192;SHT31;69513;51.990;5.704;2024-02-16T19:44:59;13.7;74.9
80192;SHT31;69513;51.990;5.704;2024-02-16T19:47:28;13.7;74.7
80192;SHT31;69513;51.990;5.704;2024-02-16T19:49:58;13.7;74.6
80192;SHT31;69513;51.990;5.704;2024-02-16T19:52:28;13.6;74.4
80192;SHT31;69513;51.990;5.704;2024-02-16T19:54:58;13.6;74.7
80192;SHT31;69513;51.990;5.704;2024-02-16T19:57:28;13.6;75.1
80192;SHT31;69513;51.990;5.704;2024-02-16T19:59:59;13.6;74.8
80192;SHT31;69513;51.990;5.704;2024-02-16T20:02:29;13.6;74.3
80192;SHT31;69513;51.990;5.704;2024-02-16T20:04:59;13.6;74.4
80192;SHT31;69513;51.990;5.704;2024-02-16T20:07:33;13.5;74.2
80192;SHT31;69513;51.990;5.704;2024-02-16T20:10:07;13.5;74.4
80192;SHT31;69513;51.990;5.704;2024-02-16T20:12:39;13.5;74.1
80192;SHT31;69513;51.990;5.704;2024-02-16T20:15:10;13.5;74.3
80192;SHT31;69513;51.990;5.704;2024-02-16T20:17:43;13.4;74.3
80192;SHT31;69513;51.990;5.704;2024-02-16T20:20:17;13.4;74.2
80192;SHT31;69513;51.990;5.704;2024-02-16T20:22:48;13.4;74.2
80192;SHT31;69513;51.990;5.704;2024-02-16T20:25:19;13.3;74.3
80192;SHT31;69513;51.990;5.704;2024-02-16T20:27:51;13.3;74.3
80192;SHT31;69513;51.990;5.704;2024-02-16T20:30:26;13.3;74.7
80192;SHT31;69513;51.990;5.704;2024-02-16T20:32:57;13.3;74.2
80192;SHT31;69513;51.990;5.704;2024-02-16T20:35:32;13.3;74.0
80192;SHT31;69513;51.990;5.704;2024-02-16T20:38:01;13.3;73.6
80192;SHT31;69513;51.990;5.704;2024-02-16T20:40:32;13.2;73.8
80192;SHT31;69513;51.990;5.704;2024-02-16T20:43:01;13.2;74.0
80192;SHT31;69513;51.990;5.704;2024-02-16T20:45:32;13.1;73.8
80192;SHT31;69513;51.990;5.704;2024-02-16T20:48:06;13.1;74.0
80192;SHT31;69513;51.990;5.704;2024-02-16T20:50:37;13.1;73.9
80192;SHT31;69513;51.990;5.704;2024-02-16T20:53:08;13.1;74.0
80192;SHT31;69513;51.990;5.704;2024-02-16T20:55:38;13.0;73.9
80192;SHT31;69513;51.990;5.704;2024-02-16T20:58:07;13.0;74.0
80192;SHT31;69513;51.990;5.704;2024-02-16T21:00:37;13.0;74.2
80192;SHT31;69513;51.990;5.704;2024-02-16T21:03:09;13.0;74.2
80192;SHT31;69513;51.990;5.704;2024-02-16T21:05:38;13.0;74.2
80192;SHT31;69513;51.990;5.704;2024-02-16T21:08:10;12.9;74.5
80192;SHT31;69513;51.990;5.704;2024-02-16T21:10:40;12.9;74.3
80192;SHT31;69513;51.990;5.704;2024-02-16T21:13:11;12.9;74.5
80192;SHT31;69513;51.990;5.704;2024-02-16T21:15:43;12.9;74.7
80192;SHT31;69513;51.990;5.704;2024-02-16T21:18:13;12.9;74.6
80192;SHT31;69513;51.990;5.704;2024-02-16T21:20:45;12.9;74.8
80192;SHT31;69513;51.990;5.704;2024-02-16T21:23:15;12.9;74.6
80192;SHT31;69513;51.990;5.704;2024-02-16T21:25:44;12.9;74.1
80192;SHT31;69513;51.990;5.704;2024-02-16T21:28:14;12.9;74.2
80192;SHT31;69513;51.990;5.704;2024-02-16T21:30:46;12.9;74.3
80192;SHT31;69513;51.990;5.704;2024-02-16T21:33:18;12.9;74.6
80192;SHT31;69513;51.990;5.704;2024-02-16T21:35:47;12.9;74.6
80192;SHT31;69513;51.990;5.704;2024-02-16T21:38:19;12.9;74.7
80192;SHT31;69513;51.990;5.704;2024-02-16T21:40:51;12.9;74.8
80192;SHT31;69513;51.990;5.704;2024-02-16T21:43:20;12.9;74.7
80192;SHT31;69513;51.990;5.704;2024-02-16T21:45:51;12.9;74.6
80192;SHT31;69513;51.990;5.704;2024-02-16T21:48:20;12.9;74.7
80192;SHT31;69513;51.990;5.704;2024-02-16T21:50:51;12.9;74.8
80192;SHT31;69513;51.990;5.704;2024-02-16T21:53:21;12.9;74.8
80192;SHT31;69513;51.990;5.704;2024-02-16T21:55:51;12.9;74.7
80192;SHT31;69513;51.990;5.704;2024-02-16T21:58:21;12.9;74.8
80192;SHT31;69513;51.990;5.704;2024-02-16T22:00:51;12.9;74.6
80192;SHT31;69513;51.990;5.704;2024-02-16T22:03:21;12.9;74.3
80192;SHT31;69513;51.990;5.704;2024-02-16T22:05:51;12.9;74.3
80192;SHT31;69513;51.990;5.704;2024-02-16T22:08:20;12.9;74.2
80192;SHT31;69513;51.990;5.704;2024-02-16T22:10:50;12.9;73.9
80192;SHT31;69513;51.990;5.704;2024-02-16T22:13:19;12.9;73.9
80192;SHT31;69513;51.990;5.704;2024-02-16T22:15:49;12.9;73.7
80192;SHT31;69513;51.990;5.704;2024-02-16T22:18:19;12.8;73.6
80192;SHT31;69513;51.990;5.704;2024-02-16T22:20:49;12.8;73.4
80192;SHT31;69513;51.990;5.704;2024-02-16T22:23:20;12.8;73.2
80192;SHT31;69513;51.990;5.704;2024-02-16T22:25:49;12.7;73.2
80192;SHT31;69513;51.990;5.704;2024-02-16T22:28:21;12.7;73.2
80192;SHT31;69513;51.990;5.704;2024-02-16T22:30:52;12.7;72.8
80192;SHT31;69513;51.990;5.704;2024-02-16T22:33:22;12.6;72.5
80192;SHT31;69513;51.990;5.704;2024-02-16T22:35:55;12.6;72.7
80192;SHT31;69513;51.990;5.704;2024-02-16T22:38:26;12.5;72.9
80192;SHT31;69513;51.990;5.704;2024-02-16T22:41:01;12.5;72.7
80192;SHT31;69513;51.990;5.704;2024-02-16T22:43:32;12.4;73.3
80192;SHT31;69513;51.990;5.704;2024-02-16T22:46:01;12.4;73.4
80192;SHT31;69513;51.990;5.704;2024-02-16T22:48:31;12.4;73.4
80192;SHT31;69513;51.990;5.704;2024-02-16T22:51:00;12.3;73.6
80192;SHT31;69513;51.990;5.704;2024-02-16T22:53:31;12.3;73.7
80192;SHT31;69513;51.990;5.704;2024-02-16T22:56:02;12.3;74.1
80192;SHT31;69513;51.990;5.704;2024-02-16T22:58:31;12.2;74.5
80192;SHT31;69513;51.990;5.704;2024-02-16T23:01:02;12.2;74.7
80192;SHT31;69513;51.990;5.704;2024-02-16T23:03:33;12.2;75.0
80192;SHT31;69513;51.990;5.704;2024-02-16T23:06:03;12.2;75.1